Time;durP1;ratioP1;P1;durP2;ratioP2;P2;SDS_P1;SDS_P2;PMS_P1;PMS_P2;Temp;Humidity;BMP_temperature;BMP_pressure;BME280_temperature;BME280_humidity;BME280_pressure;Samples;Min_cycle;Max_cycle;Signal;HPM_P1;HPM_P2
2022/03/19 00:00:17;;;;;;;9.65;5.13;;;;;;;0.87;41.41;102241.34;5071319;28;20883;-72
2022/03/19 00:02:44;;;;;;;9.27;4.80;;;;;;;0.85;41.05;102237.81;5071783;28;20111;-72
2022/03/19 00:05:09;;;;;;;11.30;4.90;;;;;;;0.86;41.55;102223.75;5071741;28;20040;-72
2022/03/19 00:07:38;;;;;;;10.02;4.78;;;;;;;0.86;41.46;102226.41;5071325;28;20025;-68
2022/03/19 00:10:06;;;;;;;9.15;4.90;;;;;;;0.84;41.37;102222.88;5070593;28;20032;-70
2022/03/19 00:12:32;;;;;;;9.35;4.82;;;;;;;0.61;41.47;102178.97;5071832;28;20028;-69
2022/03/19 00:14:58;;;;;;;10.48;5.28;;;;;;;0.58;41.67;102176.31;5071899;28;20585;-63
2022/03/19 00:17:23;;;;;;;10.30;5.05;;;;;;;0.62;42.12;102185.97;5074810;28;20115;-70
2022/03/19 00:19:49;;;;;;;7.13;4.55;;;;;;;0.83;41.47;102222.00;5076111;28;20040;-70
2022/03/19 00:22:14;;;;;;;8.95;5.00;;;;;;;0.80;42.01;102219.34;5071876;28;20033;-70
2022/03/19 00:24:40;;;;;;;11.32;4.72;;;;;;;0.80;41.85;102221.13;5071008;28;20025;-70
2022/03/19 00:27:06;;;;;;;9.88;5.75;;;;;;;0.77;42.21;102219.38;5070994;28;20470;-69
2022/03/19 00:29:31;;;;;;;14.02;5.60;;;;;;;0.68;42.03;102211.47;5071463;28;20047;-68
2022/03/19 00:31:57;;;;;;;11.23;5.28;;;;;;;0.66;42.17;102206.19;5054090;28;20509;-70
2022/03/19 00:34:22;;;;;;;13.38;5.63;;;;;;;0.73;41.58;102227.31;5071463;28;20037;-71
2022/03/19 00:36:49;;;;;;;9.95;5.20;;;;;;;0.45;41.93;102190.38;5052709;28;20032;-70
2022/03/19 00:39:15;;;;;;;9.65;5.45;;;;;;;0.64;42.44;102220.28;5071391;28;20035;-70
2022/03/19 00:41:41;;;;;;;8.63;5.03;;;;;;;0.59;42.08;102209.72;5071328;28;20024;-73
2022/03/19 00:44:07;;;;;;;9.65;5.20;;;;;;;0.64;42.51;102234.31;5071470;28;20037;-71
2022/03/19 00:46:33;;;;;;;10.13;5.22;;;;;;;0.55;42.90;102221.16;5070496;28;20024;-72
2022/03/19 00:48:59;;;;;;;15.50;6.07;;;;;;;0.61;42.68;102218.50;5071156;28;20037;-71
2022/03/19 00:51:25;;;;;;;10.65;5.80;;;;;;;0.59;42.71;102222.91;5071794;28;20033;-71
2022/03/19 00:53:51;;;;;;;10.70;5.82;;;;;;;0.59;42.46;102225.53;5071099;28;20032;-72
2022/03/19 00:56:16;;;;;;;10.60;5.82;;;;;;;0.59;42.59;102220.25;5052531;28;20032;-72
2022/03/19 00:58:42;;;;;;;11.32;5.60;;;;;;;0.60;42.46;102227.28;5070829;28;20031;-72
2022/03/19 01:01:08;;;;;;;11.43;5.70;;;;;;;0.60;42.55;102229.03;5053412;28;20036;-72
2022/03/19 01:03:33;;;;;;;11.93;5.57;;;;;;;0.56;42.32;102221.13;5071015;28;20527;-71
2022/03/19 01:05:58;;;;;;;12.13;5.55;;;;;;;0.56;42.67;102226.41;5071138;28;20024;-72
2022/03/19 01:08:24;;;;;;;11.40;5.93;;;;;;;0.55;42.59;102229.91;5070527;28;20043;-70
2022/03/19 01:10:50;;;;;;;10.35;5.63;;;;;;;0.53;42.64;102225.53;5053178;28;20367;-71
2022/03/19 01:13:15;;;;;;;11.57;5.93;;;;;;;0.52;42.50;102234.34;5071157;28;20029;-72
2022/03/19 01:15:41;;;;;;;11.70;5.70;;;;;;;0.50;42.92;102230.81;5070641;28;20497;-70
2022/03/19 01:18:06;;;;;;;15.15;5.93;;;;;;;0.51;42.43;102237.84;5052700;28;20036;-70
2022/03/19 01:20:33;;;;;;;11.80;5.60;;;;;;;0.50;43.11;102236.97;5071948;28;20036;-68
2022/03/19 01:22:58;;;;;;;13.63;6.30;;;;;;;0.49;43.02;102239.63;5075838;28;20497;-73
2022/03/19 01:25:24;;;;;;;10.10;5.88;;;;;;;0.49;42.74;102239.63;5074747;28;20056;-70
2022/03/19 01:27:50;;;;;;;13.05;6.10;;;;;;;0.46;42.89;102244.84;5074312;28;20454;-70
2022/03/19 01:30:18;;;;;;;12.02;6.35;;;;;;;0.40;43.11;102243.13;5074575;28;20224;-71
2022/03/19 01:32:45;;;;;;;12.43;6.38;;;;;;;0.44;42.94;102239.59;5074947;28;20183;-72
2022/03/19 01:35:11;;;;;;;12.25;6.13;;;;;;;0.19;43.25;102192.16;5074484;28;20044;-72
2022/03/19 01:37:38;;;;;;;12.10;5.82;;;;;;;0.45;43.17;102251.00;5056405;28;20055;-72
2022/03/19 01:40:05;;;;;;;13.95;6.50;;;;;;;0.35;43.30;102237.84;5074799;28;20021;-70
2022/03/19 01:42:33;;;;;;;15.50;6.20;;;;;;;0.33;43.53;102229.03;5074592;28;20036;-71
2022/03/19 01:45:00;;;;;;;12.95;6.28;;;;;;;0.32;43.38;102236.94;5074481;28;20037;-71
2022/03/19 01:47:28;;;;;;;13.15;6.40;;;;;;;0.39;43.31;102260.66;5074470;28;20040;-69
2022/03/19 01:49:54;;;;;;;12.75;5.95;;;;;;;0.36;43.53;102250.13;5073819;28;20044;-71
2022/03/19 01:52:20;;;;;;;11.85;6.10;;;;;;;0.33;43.79;102255.41;5074427;28;20032;-71
2022/03/19 01:54:50;;;;;;;11.10;6.68;;;;;;;0.35;43.74;102250.13;5074254;28;20036;-71
2022/03/19 01:57:24;;;;;;;14.52;6.60;;;;;;;0.34;43.42;102262.44;5073755;28;20033;-72
2022/03/19 01:59:51;;;;;;;19.50;7.07;;;;;;;0.28;43.72;102259.78;5074367;28;20032;-72
2022/03/19 02:02:16;;;;;;;15.07;6.18;;;;;;;0.26;43.68;102266.81;5074320;28;20497;-72
2022/03/19 02:04:42;;;;;;;17.48;7.13;;;;;;;0.24;44.24;102265.91;5073613;28;20111;-72
2022/03/19 02:07:09;;;;;;;22.05;7.60;;;;;;;0.23;44.07;102264.16;5073767;28;20066;-71
2022/03/19 02:09:37;;;;;;;19.17;7.10;;;;;;;0.20;44.40;102264.16;5074231;28;20025;-69
2022/03/19 02:12:03;;;;;;;20.95;7.03;;;;;;;-0.12;44.96;102209.66;5073782;28;20536;-71
2022/03/19 02:14:32;;;;;;;16.90;7.63;;;;;;;0.13;44.85;102258.00;5073770;28;20119;-72
2022/03/19 02:17:01;;;;;;;16.52;7.22;;;;;;;-0.09;44.62;102228.09;5074206;28;20051;-69
2022/03/19 02:19:26;;;;;;;19.55;7.60;;;;;;;0.08;44.53;102257.09;5073846;28;20029;-68
2022/03/19 02:21:52;;;;;;;20.23;7.65;;;;;;;0.02;44.81;102260.63;5073470;28;20044;-69
2022/03/19 02:27:03;;;;;;;18.55;8.10;;;;;;;-0.05;45.13;102254.44;5074247;28;20065;-69
2022/03/19 02:29:29;;;;;;;23.20;7.97;;;;;;;-0.05;45.04;102259.72;5073536;28;20416;-69
2022/03/19 02:31:58;;;;;;;15.27;7.93;;;;;;;-0.10;44.79;102260.56;5072861;28;20044;-68
2022/03/19 02:34:25;;;;;;;24.10;8.35;;;;;;;-0.08;44.94;102259.72;5072806;28;20119;-68
2022/03/19 02:36:50;;;;;;;17.80;7.72;;;;;;;-0.09;45.43;102267.59;5073652;28;20052;-69
2022/03/19 02:39:18;;;;;;;28.60;8.82;;;;;;;-0.11;45.32;102262.34;5073647;28;20044;-69
2022/03/19 02:41:45;;;;;;;18.25;7.95;;;;;;;-0.13;45.35;102260.56;5072953;28;20029;-70
2022/03/19 02:44:12;;;;;;;20.00;8.80;;;;;;;-0.18;46.19;102263.16;5073235;28;20107;-70
2022/03/19 02:46:43;;;;;;;23.38;8.50;;;;;;;-0.23;45.85;102257.91;5073557;28;20029;-70
2022/03/19 02:49:09;;;;;;;18.90;7.95;;;;;;;-0.20;46.00;102271.06;5073305;28;20036;-71
2022/03/19 02:51:40;;;;;;;23.42;7.82;;;;;;;-0.26;45.99;102255.22;5073304;28;20085;-70
2022/03/19 02:54:08;;;;;;;25.60;8.23;;;;;;;-0.21;46.31;102269.31;5073374;28;20024;-74
2022/03/19 02:56:36;;;;;;;23.20;8.13;;;;;;;-0.24;46.16;102268.41;5078352;28;20032;-71
2022/03/19 02:59:20;;;;;;;20.00;7.80;;;;;;;-0.29;46.12;102255.22;5077919;28;20473;-74
2022/03/19 03:01:47;;;;;;;20.75;7.45;;;;;;;-0.50;46.26;102233.19;5076255;28;20123;-69
2022/03/19 03:04:13;;;;;;;17.15;7.45;;;;;;;-0.31;46.51;102271.03;5073584;28;20054;-70
2022/03/19 03:06:42;;;;;;;17.08;7.55;;;;;;;-0.33;46.04;102270.16;5073127;28;20036;-72
2022/03/19 03:09:09;;;;;;;17.92;7.82;;;;;;;-0.36;46.51;102263.97;5054851;28;20124;-65
2022/03/19 03:11:38;;;;;;;14.30;7.30;;;;;;;-0.38;46.98;102265.72;5072705;28;20107;-70
2022/03/19 03:14:06;;;;;;;24.20;7.65;;;;;;;-0.39;46.66;102269.25;5073096;28;20111;-70
2022/03/19 03:16:32;;;;;;;21.30;8.43;;;;;;;-0.44;46.60;102267.47;5073247;28;20058;-75
2022/03/19 03:19:01;;;;;;;18.60;7.45;;;;;;;-0.46;46.55;102269.22;5078455;28;20040;-73
2022/03/19 03:21:27;;;;;;;17.10;8.13;;;;;;;-0.48;46.19;102270.97;5083363;28;20040;-72
2022/03/19 03:23:56;;;;;;;18.15;8.23;;;;;;;-0.46;46.39;102263.94;5054762;28;20033;-75
2022/03/19 03:26:22;;;;;;;23.38;8.00;;;;;;;-0.56;46.85;102259.50;5038040;28;20029;-74
2022/03/19 03:28:48;;;;;;;20.10;7.80;;;;;;;-0.51;46.83;102273.56;5072138;28;20476;-74
2022/03/19 03:31:13;;;;;;;21.80;8.10;;;;;;;-0.49;46.41;102271.81;5072101;28;20033;-72
2022/03/19 03:33:39;;;;;;;19.35;7.82;;;;;;;-0.70;46.24;102240.16;5072594;28;20037;-66
2022/03/19 03:36:05;;;;;;;17.23;7.53;;;;;;;-0.48;46.82;102284.13;5072320;28;20124;-75
2022/03/19 03:38:31;;;;;;;19.80;7.53;;;;;;;-0.47;46.38;102285.88;5072148;28;20101;-76
2022/03/19 03:40:56;;;;;;;16.70;7.97;;;;;;;-0.64;46.19;102253.31;5072512;28;20408;-75
2022/03/19 03:43:22;;;;;;;21.60;7.85;;;;;;;-0.47;46.53;102292.88;5071909;28;20039;-74
2022/03/19 03:45:49;;;;;;;18.55;7.90;;;;;;;-0.44;46.62;102292.91;5070496;28;20025;-73
2022/03/19 03:48:14;;;;;;;18.15;7.82;;;;;;;-0.57;46.45;102263.00;5072228;28;20034;-74
2022/03/19 03:50:41;;;;;;;18.42;8.30;;;;;;;-0.42;46.47;102280.63;5071730;28;20032;-65
2022/03/19 03:53:07;;;;;;;26.25;8.02;;;;;;;-0.33;46.28;102298.22;5072025;28;20073;-70
2022/03/19 03:55:34;;;;;;;19.27;8.38;;;;;;;-0.30;46.29;102295.59;5072146;28;20086;-66
2022/03/19 03:58:01;;;;;;;19.80;7.70;;;;;;;-0.30;46.04;102285.97;5071578;28;20060;-67
2022/03/19 04:00:27;;;;;;;17.95;7.68;;;;;;;-0.20;45.85;102293.88;5053622;28;20071;-70
2022/03/19 04:02:53;;;;;;;19.52;7.88;;;;;;;-0.16;46.02;102293.91;5053584;28;20423;-68
2022/03/19 04:05:19;;;;;;;22.45;7.97;;;;;;;-0.34;46.26;102247.34;5053933;28;20028;-68
2022/03/19 04:07:45;;;;;;;17.92;8.30;;;;;;;-0.03;46.05;102294.84;5053361;28;20382;-71
2022/03/19 04:10:10;;;;;;;17.75;7.80;;;;;;;-0.07;46.24;102276.38;5071582;28;20363;-73
2022/03/19 04:12:37;;;;;;;16.95;7.72;;;;;;;0.11;45.35;102300.16;5054312;28;20039;-73
2022/03/19 04:15:04;;;;;;;16.55;7.60;;;;;;;0.22;45.75;102300.16;5071616;28;20135;-70
2022/03/19 04:17:30;;;;;;;20.33;8.35;;;;;;;0.36;44.82;102292.28;5053221;28;20041;-70
2022/03/19 04:19:55;;;;;;;20.52;8.48;;;;;;;1.47;43.05;102295.78;5071533;28;20441;-77
2022/03/19 04:22:21;;;;;;;20.42;8.48;;;;;;;3.60;38.19;102249.22;5071995;28;20050;-77
2022/03/19 04:24:46;;;;;;;21.33;8.80;;;;;;;5.85;34.42;102287.06;5071793;28;20123;-78
2022/03/19 04:27:14;;;;;;;22.80;8.60;;;;;;;7.59;31.19;102280.16;5065716;28;20063;-64
2022/03/19 04:29:40;;;;;;;21.10;8.15;;;;;;;9.11;28.71;102280.78;5033828;28;20468;-74
2022/03/19 04:32:07;;;;;;;21.30;9.30;;;;;;;10.51;26.76;102285.38;5052464;28;20613;-76
2022/03/19 04:34:32;;;;;;;20.02;9.60;;;;;;;11.68;24.34;102284.81;5051557;28;20041;-67
2022/03/19 04:36:58;;;;;;;25.23;9.57;;;;;;;12.72;23.12;102287.97;5050775;28;20037;-74
2022/03/19 04:39:24;;;;;;;21.23;8.88;;;;;;;13.71;21.75;102275.72;5051301;28;20033;-72
2022/03/19 04:41:49;;;;;;;30.63;9.25;;;;;;;14.74;20.41;102281.63;5053279;28;20025;-76
2022/03/19 04:44:16;;;;;;;29.13;9.68;;;;;;;15.64;19.19;102271.66;5052115;28;20116;-75
2022/03/19 04:46:42;;;;;;;22.80;9.95;;;;;;;16.58;18.20;102287.31;5051968;28;20138;-79
2022/03/19 04:49:07;;;;;;;24.35;9.70;;;;;;;17.49;17.06;102282.97;5062475;28;20028;-74
2022/03/19 04:51:38;;;;;;;18.13;10.02;;;;;;;18.35;16.55;102302.13;5048953;28;20032;-72
2022/03/19 04:54:05;;;;;;;20.20;9.43;;;;;;;19.02;15.35;102284.41;5067267;28;20032;-72
2022/03/19 04:56:31;;;;;;;18.42;10.32;;;;;;;19.78;14.50;102297.47;5068749;28;20111;-73
2022/03/19 04:58:59;;;;;;;23.02;10.82;;;;;;;20.44;14.02;102298.50;5069038;28;20031;-69
2022/03/19 05:01:27;;;;;;;19.90;11.20;;;;;;;20.81;13.72;102278.22;5069778;28;20037;-70
2022/03/19 05:03:53;;;;;;;24.83;11.57;;;;;;;21.27;12.94;102297.03;5070037;28;20036;-68
2022/03/19 05:06:19;;;;;;;18.40;11.07;;;;;;;21.79;12.37;102306.09;5069976;28;20025;-72
2022/03/19 05:08:45;;;;;;;19.67;9.75;;;;;;;22.11;11.43;102266.00;5069336;28;20043;-69
2022/03/19 05:11:13;;;;;;;16.25;9.68;;;;;;;22.75;11.11;102303.88;5071083;28;20059;-73
2022/03/19 05:13:40;;;;;;;21.25;9.82;;;;;;;23.41;10.71;102306.84;5070436;28;20021;-67
2022/03/19 05:16:06;;;;;;;17.50;8.57;;;;;;;23.85;10.29;102298.88;5069077;28;20024;-68
2022/03/19 05:18:31;;;;;;;19.38;10.73;;;;;;;24.43;10.01;102305.06;5069078;28;20052;-67
2022/03/19 05:20:57;;;;;;;24.55;10.90;;;;;;;24.97;9.51;102315.16;5070417;28;20123;-67
2022/03/19 05:23:23;;;;;;;15.70;9.55;;;;;;;25.48;9.19;102326.38;5070730;28;20042;-67
2022/03/19 05:25:49;;;;;;;17.48;9.20;;;;;;;26.15;8.33;102322.03;5070186;28;20033;-68
2022/03/19 05:28:15;;;;;;;12.90;7.22;;;;;;;26.17;8.39;102278.84;5070008;28;20060;-62
2022/03/19 05:30:41;;;;;;;10.45;6.63;;;;;;;26.61;8.03;102318.06;5070687;28;20028;-66
2022/03/19 05:33:07;;;;;;;11.02;6.57;;;;;;;26.82;8.00;102313.97;5069969;28;20053;-65
2022/03/19 05:35:33;;;;;;;11.25;5.95;;;;;;;27.17;7.38;102317.38;5070804;28;20124;-65
2022/03/19 05:38:01;;;;;;;9.82;5.38;;;;;;;27.56;7.72;102329.56;5070498;28;20127;-70
2022/03/19 05:40:28;;;;;;;10.00;6.05;;;;;;;27.82;7.25;102326.56;5070426;28;20105;-69
2022/03/19 05:42:54;;;;;;;9.77;5.72;;;;;;;27.82;7.38;102321.03;5070448;28;20458;-71
2022/03/19 05:45:21;;;;;;;8.63;5.75;;;;;;;27.77;7.30;102315.22;5070409;28;20024;-70
2022/03/19 05:47:47;;;;;;;9.13;5.30;;;;;;;28.15;6.94;102320.03;5051752;28;20052;-67
2022/03/19 05:50:13;;;;;;;7.28;5.45;;;;;;;28.46;7.06;102322.81;5070492;28;20110;-68
2022/03/19 05:52:40;;;;;;;11.43;5.63;;;;;;;28.37;6.87;102323.88;5070200;28;20024;-67
2022/03/19 05:55:07;;;;;;;8.90;5.45;;;;;;;28.84;6.77;102322.06;5069866;28;20029;-68
2022/03/19 05:57:32;;;;;;;9.35;5.20;;;;;;;29.17;6.33;102313.47;5069693;28;20042;-67
2022/03/19 05:59:58;;;;;;;10.60;6.03;;;;;;;29.79;5.62;102316.09;5070501;28;20029;-67
2022/03/19 06:02:24;;;;;;;12.70;5.40;;;;;;;30.54;5.92;102312.31;5069939;28;20048;-67
2022/03/19 06:04:51;;;;;;;15.23;5.68;;;;;;;31.10;5.43;102314.31;5051388;28;20029;-66
2022/03/19 06:07:16;;;;;;;12.52;5.53;;;;;;;31.64;4.83;102310.03;5070443;28;20052;-65
2022/03/19 06:09:42;;;;;;;11.98;5.88;;;;;;;32.07;4.71;102305.31;5073890;28;20036;-65
2022/03/19 06:12:08;;;;;;;10.45;6.13;;;;;;;32.18;4.73;102299.19;5073328;28;20389;-65
2022/03/19 06:14:33;;;;;;;14.73;5.72;;;;;;;32.02;5.10;102252.44;5073525;28;20107;-63
2022/03/19 06:16:59;;;;;;;14.63;6.78;;;;;;;32.63;4.53;102308.91;5039201;28;20116;-65
2022/03/19 06:19:24;;;;;;;11.80;6.00;;;;;;;33.16;4.33;102310.84;5055808;28;20028;-65
2022/03/19 06:21:50;;;;;;;9.57;5.60;;;;;;;33.59;3.99;102295.63;5073337;28;20036;-63
2022/03/19 06:24:17;;;;;;;14.50;5.85;;;;;;;33.83;3.99;102307.06;5073745;28;20037;-65
2022/03/19 06:26:42;;;;;;;12.57;5.30;;;;;;;33.21;4.51;102313.84;5074212;28;20098;-63
2022/03/19 06:29:08;;;;;;;10.43;5.18;;;;;;;33.69;4.11;102314.59;5073266;28;20051;-63
2022/03/19 06:31:33;;;;;;;12.93;4.63;;;;;;;34.29;4.00;102318.19;5054793;28;20490;-63
2022/03/19 06:33:59;;;;;;;9.23;5.10;;;;;;;34.31;3.87;102280.72;5073181;28;20040;-65
2022/03/19 06:39:09;;;;;;;8.43;5.35;;;;;;;35.15;3.39;102312.22;5073363;28;20841;-64
2022/03/19 06:41:34;;;;;;;9.07;5.28;;;;;;;35.17;3.12;102312.84;5073101;28;20033;-64
2022/03/19 06:44:00;;;;;;;10.85;5.70;;;;;;;35.34;2.97;102311.16;5072708;28;20032;-64
2022/03/19 06:46:26;;;;;;;10.82;5.55;;;;;;;34.83;3.34;102309.47;5073699;28;20086;-64
2022/03/19 06:48:52;;;;;;;10.35;4.97;;;;;;;34.52;3.51;102280.66;5055441;28;20111;-66
2022/03/19 06:51:18;;;;;;;11.10;5.57;;;;;;;35.11;3.34;102313.75;5054960;28;20530;-63
2022/03/19 06:53:45;;;;;;;8.02;4.32;;;;;;;35.78;2.78;102315.84;5072974;28;20029;-62
2022/03/19 06:56:11;;;;;;;7.32;4.95;;;;;;;36.30;2.75;102318.16;5073361;28;20466;-63
2022/03/19 06:58:36;;;;;;;7.97;4.95;;;;;;;36.96;2.51;102300.59;5072899;28;20036;-63
2022/03/19 07:01:03;;;;;;;11.02;5.38;;;;;;;37.35;2.27;102309.31;5038405;28;20119;-65
2022/03/19 07:03:30;;;;;;;10.40;4.90;;;;;;;37.51;2.14;102317.25;5071316;28;20532;-65
2022/03/19 07:05:56;;;;;;;13.60;5.00;;;;;;;37.79;1.89;102319.22;5072883;28;20056;-64
2022/03/19 07:08:22;;;;;;;7.80;4.45;;;;;;;38.04;1.80;102312.47;5053888;28;20386;-64
2022/03/19 07:10:48;;;;;;;12.30;5.65;;;;;;;38.30;1.89;102315.75;5037950;28;20072;-63
2022/03/19 07:13:14;;;;;;;11.55;4.90;;;;;;;38.26;1.82;102322.94;5071613;28;20048;-63
2022/03/19 07:15:41;;;;;;;9.00;5.05;;;;;;;38.04;1.97;102306.88;5072244;28;20020;-64
2022/03/19 07:18:07;;;;;;;7.30;5.10;;;;;;;38.36;2.11;102320.38;5072309;28;20036;-64
2022/03/19 07:20:32;;;;;;;9.20;5.38;;;;;;;38.81;1.90;102318.63;5072147;28;20036;-64
2022/03/19 07:23:06;;;;;;;6.95;5.40;;;;;;;39.46;2.17;102330.31;5071963;28;20054;-65
2022/03/19 07:25:34;;;;;;;10.52;5.30;;;;;;;38.68;1.64;102316.16;5072330;28;20531;-66
2022/03/19 07:28:10;;;;;;;12.20;5.15;;;;;;;38.79;2.24;102317.16;5071769;28;20401;-65
2022/03/19 07:30:37;;;;;;;11.68;4.50;;;;;;;38.06;2.01;102315.88;5072032;28;20020;-65
2022/03/19 07:33:02;;;;;;;10.80;4.88;;;;;;;37.99;2.28;102317.97;5072229;28;20053;-66
2022/03/19 07:35:28;;;;;;;12.75;5.15;;;;;;;38.02;1.79;102306.28;5072091;28;20419;-68
2022/03/19 07:37:54;;;;;;;11.90;5.13;;;;;;;38.30;2.20;102319.41;5054375;28;20127;-66
2022/03/19 07:43:07;;;;;;;10.85;4.72;;;;;;;37.39;2.36;102317.25;5053958;28;20122;-65
2022/03/19 07:45:33;;;;;;;11.77;5.10;;;;;;;37.04;2.78;102317.00;5071954;28;20467;-66
2022/03/19 07:47:59;;;;;;;9.77;4.82;;;;;;;36.80;2.46;102316.13;5054361;28;20021;-65
2022/03/19 07:50:25;;;;;;;12.93;5.40;;;;;;;36.37;2.94;102317.22;5071646;28;20039;-65
2022/03/19 07:52:50;;;;;;;11.73;5.05;;;;;;;35.70;2.84;102310.59;5071845;28;20032;-65
2022/03/19 07:55:17;;;;;;;13.75;4.88;;;;;;;34.28;3.49;102328.44;5072347;28;20039;-64
2022/03/19 07:57:42;;;;;;;11.95;4.18;;;;;;;33.58;3.58;102299.47;5032144;28;20087;-69
2022/03/19 08:00:09;;;;;;;12.98;4.88;;;;;;;32.82;4.00;102325.78;5052862;28;20136;-70
2022/03/19 08:02:35;;;;;;;12.52;4.50;;;;;;;31.02;4.53;102320.84;5069842;28;20036;-67
2022/03/19 08:05:03;;;;;;;15.88;5.40;;;;;;;28.46;6.05;102314.56;5053613;28;20035;-66
2022/03/19 08:07:29;;;;;;;10.70;5.32;;;;;;;25.50;7.53;102326.19;5070678;28;20055;-65
2022/03/19 08:09:55;;;;;;;10.90;4.90;;;;;;;22.83;9.27;102322.28;5071023;28;20040;-64
2022/03/19 08:12:21;;;;;;;11.38;4.70;;;;;;;20.33;11.07;102317.59;5071155;28;20035;-62
2022/03/19 08:14:47;;;;;;;13.48;5.03;;;;;;;18.19;12.41;102316.81;5052511;28;20032;-62
2022/03/19 08:17:13;;;;;;;11.95;5.38;;;;;;;16.59;14.16;102316.97;5069375;28;20032;-62
2022/03/19 08:19:39;;;;;;;9.25;4.95;;;;;;;15.43;15.20;102314.38;5070789;28;20033;-62
2022/03/19 08:22:04;;;;;;;11.07;4.90;;;;;;;14.31;16.34;102328.09;5071322;28;20370;-62
2022/03/19 08:24:30;;;;;;;13.05;5.72;;;;;;;13.46;17.34;102315.59;5070966;28;20036;-62
2022/03/19 08:26:55;;;;;;;10.30;4.88;;;;;;;12.90;17.95;102312.19;5070278;28;20028;-63
2022/03/19 08:29:24;;;;;;;9.63;5.03;;;;;;;12.56;18.15;102303.13;5070799;28;20394;-57
2022/03/19 08:31:51;;;;;;;16.00;5.90;;;;;;;11.90;18.59;102302.59;5070791;28;20044;-62
2022/03/19 08:34:17;;;;;;;11.93;5.07;;;;;;;11.68;20.23;102306.28;5071111;28;20067;-63
2022/03/19 08:36:42;;;;;;;7.13;4.50;;;;;;;11.50;20.02;102318.72;5069441;28;20044;-64
2022/03/19 08:41:52;;;;;;;15.90;4.88;;;;;;;11.13;20.20;102307.78;5071144;28;20051;-62
2022/03/19 08:44:17;;;;;;;11.77;4.60;;;;;;;10.98;20.92;102312.00;5071163;28;20482;-64
2022/03/19 08:46:43;;;;;;;10.05;4.68;;;;;;;10.93;20.66;102303.28;5070054;28;20078;-63
2022/03/19 08:49:09;;;;;;;10.63;4.60;;;;;;;10.93;20.68;102313.13;5070115;28;20043;-63
2022/03/19 08:51:40;;;;;;;14.05;4.88;;;;;;;10.95;20.93;102314.81;5070050;28;20485;-69
2022/03/19 08:54:07;;;;;;;13.82;5.03;;;;;;;10.88;21.02;102322.25;5070734;28;20027;-67
2022/03/19 08:56:34;;;;;;;13.20;5.05;;;;;;;10.76;21.10;102328.97;5070301;28;20111;-69
2022/03/19 08:59:00;;;;;;;10.95;4.75;;;;;;;10.65;21.83;102330.34;5069964;28;20428;-68
2022/03/19 09:01:26;;;;;;;8.50;4.22;;;;;;;10.69;21.87;102332.84;5071205;28;20028;-65
2022/03/19 09:03:52;;;;;;;9.00;4.45;;;;;;;10.68;21.44;102338.28;5070606;28;20458;-68
2022/03/19 09:06:18;;;;;;;10.10;4.38;;;;;;;10.61;22.58;102337.66;5068968;28;20104;-68
2022/03/19 09:08:45;;;;;;;9.98;4.25;;;;;;;10.61;22.34;102338.53;5070478;28;20062;-69
2022/03/19 09:11:11;;;;;;;6.07;3.92;;;;;;;10.61;22.21;102326.94;5070420;28;20435;-68
2022/03/19 09:13:38;;;;;;;8.93;4.10;;;;;;;10.62;22.25;102332.22;5068410;28;20047;-70
2022/03/19 09:16:04;;;;;;;8.27;4.47;;;;;;;10.58;22.06;102337.75;5070132;28;20032;-69
2022/03/19 09:18:30;;;;;;;7.53;3.90;;;;;;;10.51;23.05;102337.16;5070552;28;20445;-71
2022/03/19 09:20:57;;;;;;;9.63;4.10;;;;;;;10.50;22.45;102332.75;5070700;28;20032;-68
2022/03/19 09:23:22;;;;;;;7.43;4.25;;;;;;;10.48;22.46;102327.44;5070114;28;20082;-69
2022/03/19 09:25:48;;;;;;;6.28;3.80;;;;;;;10.48;22.38;102343.50;5070254;28;20037;-68
2022/03/19 09:28:13;;;;;;;7.85;4.18;;;;;;;10.36;22.76;102332.38;5068639;28;20448;-67
2022/03/19 09:30:39;;;;;;;9.40;4.13;;;;;;;10.14;22.70;102310.00;5070064;28;20031;-68
2022/03/19 09:33:04;;;;;;;8.63;4.40;;;;;;;10.31;23.08;102335.22;5070413;28;20049;-68
2022/03/19 09:35:30;;;;;;;8.38;4.40;;;;;;;10.32;23.10;102340.53;5070048;28;20138;-65
2022/03/19 09:37:55;;;;;;;10.30;4.95;;;;;;;10.40;23.08;102337.59;5070232;28;20387;-67
2022/03/19 09:40:22;;;;;;;7.07;4.22;;;;;;;10.34;23.35;102330.63;5069979;28;20095;-69
2022/03/19 09:42:53;;;;;;;7.80;4.22;;;;;;;10.47;23.04;102344.44;5070769;28;20040;-69
2022/03/19 09:45:20;;;;;;;10.88;4.78;;;;;;;10.43;23.27;102348.19;5073872;28;20040;-70
2022/03/19 09:47:47;;;;;;;8.65;4.68;;;;;;;10.47;23.16;102336.41;5072762;28;20070;-67
2022/03/19 09:50:13;;;;;;;7.22;3.95;;;;;;;10.52;23.37;102332.66;5074523;28;20036;-68
2022/03/19 09:52:41;;;;;;;9.32;4.22;;;;;;;10.56;23.21;102337.84;5073088;28;20437;-68
2022/03/19 09:55:12;;;;;;;7.25;4.40;;;;;;;10.55;23.40;102336.09;5073517;28;20028;-69
2022/03/19 09:57:37;;;;;;;7.32;4.50;;;;;;;10.61;23.10;102349.25;5073795;28;20020;-70
2022/03/19 10:00:04;;;;;;;9.50;4.95;;;;;;;10.58;23.13;102353.84;5072899;28;20150;-68
2022/03/19 10:02:29;;;;;;;9.93;4.50;;;;;;;10.54;23.12;102336.16;5073817;28;20024;-65
2022/03/19 10:04:57;;;;;;;7.03;4.28;;;;;;;10.61;23.01;102351.06;5074153;28;20404;-70
2022/03/19 10:10:09;;;;;;;7.88;4.18;;;;;;;10.75;22.79;102364.75;5073681;28;20394;-67
2022/03/19 10:12:36;;;;;;;6.38;4.40;;;;;;;10.75;22.76;102353.19;5073205;28;20470;-68
2022/03/19 10:15:09;;;;;;;15.60;4.75;;;;;;;10.69;22.81;102356.97;5072762;28;20032;-65
2022/03/19 10:17:39;;;;;;;9.30;4.93;;;;;;;10.65;22.57;102347.31;5072861;28;20032;-61
2022/03/19 10:20:10;;;;;;;8.52;4.75;;;;;;;10.55;23.24;102335.22;5072071;28;20043;-63
2022/03/19 10:22:46;;;;;;;10.73;4.75;;;;;;;10.74;23.04;102368.38;5073115;28;20028;-65
2022/03/19 10:25:14;;;;;;;8.85;4.50;;;;;;;10.76;22.63;102357.59;5072096;28;20028;-65
2022/03/19 10:27:42;;;;;;;6.85;4.60;;;;;;;10.76;22.56;102352.25;5069927;28;20029;-63
2022/03/19 10:30:20;;;;;;;10.18;5.00;;;;;;;10.86;22.49;102355.44;5072446;28;20037;-66
2022/03/19 10:33:06;;;;;;;6.80;4.55;;;;;;;10.86;22.37;102345.56;5073306;28;20048;-64
2022/03/19 10:35:38;;;;;;;11.82;5.50;;;;;;;10.60;22.70;102311.78;5055220;28;20043;-71
2022/03/19 10:38:17;;;;;;;8.02;4.55;;;;;;;10.83;22.66;102350.16;5055590;28;20024;-63
2022/03/19 10:40:47;;;;;;;13.20;4.90;;;;;;;10.70;22.36;102356.03;5055064;28;20123;-64
2022/03/19 10:43:16;;;;;;;6.18;4.55;;;;;;;10.68;22.45;102348.97;5072854;28;20111;-63
2022/03/19 10:45:44;;;;;;;8.65;4.95;;;;;;;10.70;22.53;102348.00;5036937;28;20543;-65
2022/03/19 10:48:12;;;;;;;8.55;4.70;;;;;;;10.69;22.19;102345.38;5072702;28;20075;-63
2022/03/19 10:50:41;;;;;;;8.85;5.53;;;;;;;10.44;22.25;102323.13;5038287;28;20446;-63
2022/03/19 10:53:08;;;;;;;9.63;5.10;;;;;;;10.55;22.68;102348.59;5054543;28;20033;-64
2022/03/19 10:55:34;;;;;;;9.77;5.60;;;;;;;10.57;23.14;102346.75;5054617;28;20032;-65
2022/03/19 10:57:59;;;;;;;9.38;5.30;;;;;;;10.45;22.40;102308.81;5073679;28;20039;-65
2022/03/19 11:00:25;;;;;;;6.97;5.28;;;;;;;10.65;22.25;102322.31;5072757;28;20051;-64
2022/03/19 11:02:56;;;;;;;10.80;5.82;;;;;;;10.75;22.23;102343.31;5055434;28;20020;-65
2022/03/19 11:05:23;;;;;;;9.65;5.32;;;;;;;10.70;22.26;102329.25;5039050;28;20075;-66
2022/03/19 11:07:51;;;;;;;10.00;4.75;;;;;;;10.71;22.16;102332.78;5055086;28;20028;-64
2022/03/19 11:10:19;;;;;;;7.93;5.38;;;;;;;10.56;22.40;102324.44;5073445;28;20036;-63
2022/03/19 11:12:50;;;;;;;9.50;5.32;;;;;;;10.62;22.48;102332.22;5072694;28;20123;-63
2022/03/19 11:15:19;;;;;;;8.48;5.40;;;;;;;10.56;22.11;102331.59;5073085;28;20033;-63
2022/03/19 11:17:47;;;;;;;8.88;4.97;;;;;;;10.44;22.41;102338.31;5073045;28;20115;-65
2022/03/19 11:20:13;;;;;;;9.23;5.00;;;;;;;10.35;22.79;102318.09;5072468;28;20029;-63
2022/03/19 11:22:42;;;;;;;8.95;5.20;;;;;;;10.39;22.19;102325.09;5072914;28;20355;-63
2022/03/19 11:25:11;;;;;;;8.63;4.35;;;;;;;10.41;22.16;102323.25;5054497;28;20059;-65
2022/03/19 11:27:38;;;;;;;5.80;4.25;;;;;;;10.43;22.13;102324.06;5054989;28;20495;-63
2022/03/19 11:30:05;;;;;;;7.93;4.07;;;;;;;10.48;22.36;102319.41;5073250;28;20411;-63
2022/03/19 11:32:31;;;;;;;8.93;4.30;;;;;;;10.48;22.33;102318.50;5072843;28;20071;-62
2022/03/19 11:34:59;;;;;;;7.90;3.67;;;;;;;10.52;21.90;102329.97;5054783;28;20051;-62